createdAt,value
2019-02-27T00:00:34.657Z,99.99
2019-02-27T00:01:34.648Z,99.99
2019-02-27T00:02:34.643Z,99.99
2019-02-27T00:03:34.670Z,99.99
2019-02-27T00:04:35.561Z,99.99
2019-02-27T00:05:34.634Z,99.99
2019-02-27T00:06:34.619Z,99.99
2019-02-27T00:07:34.621Z,99.99
2019-02-27T00:08:34.661Z,99.99
2019-02-27T00:09:34.608Z,99.99
2019-02-27T00:10:36.906Z,99.99
2019-02-27T00:11:34.596Z,99.99
2019-02-27T00:12:34.592Z,99.99
2019-02-27T00:13:34.620Z,99.99
2019-02-27T00:14:34.580Z,99.99
2019-02-27T00:15:37.754Z,99.99
2019-02-27T00:16:34.568Z,99.99
2019-02-27T00:17:34.567Z,99.99
2019-02-27T00:18:34.563Z,99.99
2019-02-27T00:19:34.598Z,99.99
2019-02-27T00:20:36.684Z,99.99
2019-02-27T00:21:34.550Z,99.99
2019-02-27T00:22:34.546Z,99.99
2019-02-27T00:23:34.532Z,99.99
2019-02-27T00:24:34.566Z,99.99
2019-02-27T00:25:36.115Z,99.99
2019-02-27T00:26:34.516Z,99.99
2019-02-27T00:27:34.521Z,99.99
2019-02-27T00:28:34.504Z,99.99
2019-02-27T00:29:34.536Z,99.99
2019-02-27T00:30:37.903Z,99.99
2019-02-27T00:31:34.489Z,99.99
2019-02-27T00:32:34.484Z,99.99
2019-02-27T00:33:34.488Z,99.99
2019-02-27T00:34:34.514Z,99.99
2019-02-27T00:35:38.642Z,99.99
2019-02-27T00:36:34.462Z,99.99
2019-02-27T00:37:34.457Z,99.99
2019-02-27T00:38:34.452Z,99.99
2019-02-27T00:39:34.450Z,99.99
2019-02-27T00:40:38.526Z,99.99
2019-02-27T00:41:34.441Z,99.99
2019-02-27T00:42:34.433Z,99.99
2019-02-27T00:43:34.424Z,99.99
2019-02-27T00:44:34.908Z,99.99
2019-02-27T00:45:34.417Z,99.99
2019-02-27T00:46:34.436Z,99.99
2019-02-27T00:47:34.405Z,99.99
2019-02-27T00:48:34.396Z,99.99
2019-02-27T00:49:34.542Z,99.99
2019-02-27T00:50:34.388Z,99.99
2019-02-27T00:51:34.414Z,99.99
2019-02-27T00:52:34.378Z,99.99
2019-02-27T00:53:34.374Z,99.99
2019-02-27T00:54:34.400Z,99.99
2019-02-27T00:55:38.559Z,99.99
2019-02-27T00:56:34.354Z,99.99
2019-02-27T00:57:34.358Z,99.99
2019-02-27T00:58:34.342Z,99.99
2019-02-27T00:59:34.370Z,99.99
2019-02-27T01:00:38.909Z,99.99
2019-02-27T01:01:34.334Z,99.99
2019-02-27T01:02:34.326Z,99.99
2019-02-27T01:03:34.312Z,99.99
2019-02-27T01:04:35.184Z,99.99
2019-02-27T01:05:34.302Z,99.99
2019-02-27T01:06:34.301Z,99.99
2019-02-27T01:07:34.288Z,99.99
2019-02-27T01:08:34.284Z,99.99
2019-02-27T01:09:34.316Z,99.99
2019-02-27T01:10:34.272Z,99.99
2019-02-27T01:11:34.270Z,99.99
2019-02-27T01:12:34.269Z,99.99
2019-02-27T01:13:34.260Z,99.99
2019-02-27T01:14:36.925Z,99.99
2019-02-27T01:15:34.251Z,99.99
2019-02-27T01:16:34.279Z,99.99
2019-02-27T01:17:34.241Z,99.99
2019-02-27T01:18:34.245Z,99.99
2019-02-27T01:19:38.470Z,99.99
2019-02-27T01:20:34.226Z,99.99
2019-02-27T01:21:34.217Z,99.99
2019-02-27T01:22:34.215Z,99.99
2019-02-27T01:23:34.206Z,99.99
2019-02-27T01:24:34.233Z,99.99
2019-02-27T01:25:34.192Z,99.99
2019-02-27T01:26:34.189Z,99.99
2019-02-27T01:27:37.934Z,99.99
2019-02-27T01:28:34.178Z,99.99
2019-02-27T01:29:34.209Z,99.99
2019-02-27T01:30:34.200Z,99.99
2019-02-27T01:31:34.161Z,99.99
2019-02-27T01:32:34.152Z,99.99
2019-02-27T01:33:37.759Z,99.99
2019-02-27T01:34:34.146Z,99.99
2019-02-27T01:35:34.170Z,99.99
2019-02-27T01:36:34.132Z,99.99
2019-02-27T01:37:34.129Z,99.99
2019-02-27T01:38:37.644Z,99.99
2019-02-27T01:39:34.116Z,99.99
2019-02-27T01:40:34.136Z,99.99
2019-02-27T01:41:34.132Z,99.99
2019-02-27T01:42:34.100Z,99.99
2019-02-27T01:43:34.090Z,99.99
2019-02-27T01:44:34.090Z,99.99
2019-02-27T01:45:34.080Z,99.99
2019-02-27T01:46:34.113Z,99.99
2019-02-27T01:47:36.118Z,99.99
2019-02-27T01:48:34.074Z,99.99
2019-02-27T01:49:34.055Z,99.99
2019-02-27T01:50:34.091Z,99.99
2019-02-27T01:51:34.044Z,99.99
2019-02-27T01:52:34.600Z,99.99
2019-02-27T01:53:34.033Z,99.99
2019-02-27T01:54:34.028Z,99.99
2019-02-27T01:55:34.064Z,99.99
2019-02-27T01:56:34.022Z,99.99
2019-02-27T01:57:34.148Z,99.99
2019-02-27T01:58:34.014Z,99.99
2019-02-27T01:59:34.004Z,99.99
2019-02-27T02:00:34.028Z,99.99
2019-02-27T02:01:33.998Z,99.99
2019-02-27T02:02:34.949Z,99.99
2019-02-27T02:03:33.975Z,99.99
2019-02-27T02:04:33.975Z,99.99
2019-02-27T02:05:34.025Z,99.99
2019-02-27T02:06:33.965Z,99.99
2019-02-27T02:07:33.957Z,99.99
2019-02-27T02:08:33.947Z,99.99
2019-02-27T02:09:33.968Z,99.99
2019-02-27T02:10:33.981Z,99.99
2019-02-27T02:11:34.998Z,99.99
2019-02-27T02:12:33.922Z,99.99
2019-02-27T02:13:33.926Z,99.99
2019-02-27T02:14:33.912Z,99.99
2019-02-27T02:15:33.941Z,99.99
2019-02-27T02:16:34.414Z,99.99
2019-02-27T02:17:33.898Z,99.99
2019-02-27T02:18:33.893Z,99.99
2019-02-27T02:19:33.888Z,99.99
2019-02-27T02:20:33.908Z,99.99
2019-02-27T02:21:34.360Z,99.99
2019-02-27T02:22:33.905Z,99.99
2019-02-27T02:23:33.860Z,99.99
2019-02-27T02:24:33.856Z,99.99
2019-02-27T02:25:33.847Z,99.99
2019-02-27T02:26:35.054Z,99.99
2019-02-27T02:27:33.870Z,99.99
2019-02-27T02:28:33.888Z,99.99
2019-02-27T02:29:33.848Z,99.99
2019-02-27T02:30:33.848Z,99.99
2019-02-27T02:31:33.873Z,99.99
2019-02-27T02:32:33.828Z,99.99
2019-02-27T02:33:33.833Z,99.99
2019-02-27T02:34:39.829Z,99.99
2019-02-27T02:35:33.856Z,99.99
2019-02-27T02:36:33.846Z,99.99
2019-02-27T02:37:37.007Z,99.99
2019-02-27T02:38:33.794Z,99.99
2019-02-27T02:39:33.788Z,99.99
2019-02-27T02:40:33.781Z,99.99
2019-02-27T02:41:33.818Z,99.99
2019-02-27T02:42:33.810Z,99.99
2019-02-27T02:43:40.252Z,99.99
2019-02-27T02:44:33.761Z,99.99
2019-02-27T02:45:33.848Z,99.99
2019-02-27T02:46:33.745Z,99.99
2019-02-27T02:47:33.772Z,99.99
2019-02-27T02:48:33.732Z,99.99
2019-02-27T02:49:33.730Z,99.99
2019-02-27T02:50:33.722Z,99.99
2019-02-27T02:51:33.717Z,99.99
2019-02-27T02:52:40.171Z,99.99
2019-02-27T02:53:33.708Z,99.99
2019-02-27T02:54:37.531Z,99.99
2019-02-27T02:55:33.697Z,99.99
2019-02-27T02:56:33.693Z,99.99
2019-02-27T02:57:36.260Z,99.99
2019-02-27T02:58:33.682Z,99.99
2019-02-27T02:59:33.670Z,99.99
2019-02-27T03:00:37.932Z,99.99
2019-02-27T03:01:33.650Z,99.99
2019-02-27T03:02:33.650Z,99.99
2019-02-27T03:03:37.271Z,99.99
2019-02-27T03:04:33.641Z,99.99
2019-02-27T03:05:33.628Z,99.99
2019-02-27T03:06:35.015Z,99.99
2019-02-27T03:07:33.616Z,99.99
2019-02-27T03:08:33.649Z,99.99
2019-02-27T03:09:33.615Z,99.99
2019-02-27T03:10:33.600Z,99.99
2019-02-27T03:11:33.592Z,99.99
2019-02-27T03:12:33.587Z,99.99
2019-02-27T03:13:33.624Z,99.99
2019-02-27T03:14:33.581Z,99.99
2019-02-27T03:15:33.567Z,99.99
2019-02-27T03:16:33.558Z,99.99
2019-02-27T03:17:33.557Z,99.99
2019-02-27T03:18:33.586Z,99.99
2019-02-27T03:19:33.546Z,99.99
2019-02-27T03:20:33.538Z,99.99
2019-02-27T03:21:33.558Z,99.99
2019-02-27T03:22:40.356Z,99.99
2019-02-27T03:23:33.558Z,99.99
2019-02-27T03:24:33.516Z,99.99
2019-02-27T03:25:40.292Z,99.99
2019-02-27T03:26:33.499Z,99.99
2019-02-27T03:27:33.496Z,99.99
2019-02-27T03:28:33.489Z,99.99
2019-02-27T03:29:33.594Z,99.99
2019-02-27T03:30:36.234Z,99.99
2019-02-27T03:31:33.468Z,99.99
2019-02-27T03:32:41.295Z,99.99
2019-02-27T03:33:33.466Z,99.99
2019-02-27T03:34:33.499Z,99.99
2019-02-27T03:35:33.444Z,99.99
2019-02-27T03:36:36.042Z,99.99
2019-02-27T03:37:33.430Z,99.99
2019-02-27T03:38:33.465Z,99.99
2019-02-27T03:39:34.921Z,99.99
2019-02-27T03:40:33.415Z,99.99
2019-02-27T03:41:33.409Z,99.99
2019-02-27T03:42:34.215Z,99.99
2019-02-27T03:43:33.397Z,99.99
2019-02-27T03:44:33.424Z,99.99
2019-02-27T03:45:33.389Z,99.99
2019-02-27T03:46:33.381Z,99.99
2019-02-27T03:47:33.370Z,99.99
2019-02-27T03:48:33.360Z,99.99
2019-02-27T03:49:39.647Z,99.99
2019-02-27T03:50:33.386Z,99.99
2019-02-27T03:51:33.346Z,99.99
2019-02-27T03:52:36.329Z,99.99
2019-02-27T03:53:33.336Z,99.99
2019-02-27T03:54:33.376Z,99.99
2019-02-27T03:55:33.322Z,99.99
2019-02-27T03:56:33.353Z,99.99
2019-02-27T03:57:33.307Z,99.99
2019-02-27T03:58:33.302Z,99.99
2019-02-27T03:59:33.335Z,99.99
2019-02-27T04:00:33.292Z,99.99
2019-02-27T04:01:33.282Z,99.99
2019-02-27T04:02:33.318Z,99.99
2019-02-27T04:03:34.037Z,99.99
2019-02-27T04:04:33.269Z,99.99
2019-02-27T04:05:33.297Z,99.99
2019-02-27T04:06:33.257Z,99.99
2019-02-27T04:07:33.247Z,99.99
2019-02-27T04:08:33.279Z,99.99
2019-02-27T04:09:33.407Z,99.99
2019-02-27T04:10:33.265Z,99.99
2019-02-27T04:11:33.228Z,99.99
2019-02-27T04:12:33.219Z,99.99
2019-02-27T04:13:33.210Z,99.99
2019-02-27T04:14:36.919Z,99.99
2019-02-27T04:15:33.235Z,99.99
2019-02-27T04:16:33.243Z,99.99
2019-02-27T04:17:33.183Z,99.99
2019-02-27T04:18:33.214Z,99.99
2019-02-27T04:19:38.752Z,99.99
2019-02-27T04:20:33.170Z,99.99
2019-02-27T04:21:33.205Z,99.99
2019-02-27T04:22:36.562Z,99.99
2019-02-27T04:23:33.162Z,99.99
2019-02-27T04:24:33.145Z,99.99
2019-02-27T04:25:33.134Z,99.99
2019-02-27T04:26:33.161Z,99.99
2019-02-27T04:27:33.120Z,99.99
2019-02-27T04:28:33.150Z,99.99
2019-02-27T04:29:33.112Z,99.99
2019-02-27T04:30:33.110Z,99.99
2019-02-27T04:31:33.134Z,99.99
2019-02-27T04:32:33.093Z,99.99
2019-02-27T04:33:33.120Z,99.99
2019-02-27T04:34:33.750Z,99.99
2019-02-27T04:35:34.306Z,99.99
2019-02-27T04:36:33.065Z,99.99
2019-02-27T04:37:33.094Z,99.99
2019-02-27T04:38:33.064Z,99.99
2019-02-27T04:39:33.081Z,99.99
2019-02-27T04:40:33.037Z,99.99
2019-02-27T04:41:33.033Z,99.99
2019-02-27T04:42:33.064Z,99.99
2019-02-27T04:43:33.020Z,99.99
2019-02-27T04:44:33.012Z,99.99
2019-02-27T04:45:33.007Z,99.99
2019-02-27T04:46:33.003Z,99.99
2019-02-27T04:47:33.029Z,99.99
2019-02-27T04:48:33.024Z,99.99
2019-02-27T04:49:34.760Z,99.99
2019-02-27T04:50:32.982Z,99.99
2019-02-27T04:51:32.970Z,99.99
2019-02-27T04:52:33.002Z,99.99
2019-02-27T04:53:32.954Z,99.99
2019-02-27T04:54:34.976Z,99.99
2019-02-27T04:55:32.944Z,99.99
2019-02-27T04:56:32.936Z,99.99
2019-02-27T04:57:33.776Z,99.99
2019-02-27T04:58:32.931Z,99.99
2019-02-27T04:59:32.922Z,99.99
2019-02-27T05:00:32.918Z,99.99
2019-02-27T05:01:36.417Z,99.99
2019-02-27T05:02:32.935Z,99.99
2019-02-27T05:03:32.940Z,99.99
2019-02-27T05:04:35.153Z,99.99
2019-02-27T05:05:32.880Z,99.99
2019-02-27T05:06:32.877Z,99.99
2019-02-27T05:07:32.900Z,99.99
2019-02-27T05:08:32.866Z,99.99
2019-02-27T05:09:34.017Z,99.99
2019-02-27T05:10:33.847Z,99.99
2019-02-27T05:11:32.839Z,99.99
2019-02-27T05:12:32.868Z,99.99
2019-02-27T05:13:34.518Z,99.99
2019-02-27T05:14:32.820Z,99.99
2019-02-27T05:15:32.819Z,99.99
2019-02-27T05:16:32.810Z,99.99
2019-02-27T05:17:32.838Z,99.99
2019-02-27T05:18:32.836Z,99.99
2019-02-27T05:19:36.881Z,99.99
2019-02-27T05:20:32.783Z,99.99
2019-02-27T05:21:32.774Z,99.99
2019-02-27T05:22:32.809Z,99.99
2019-02-27T05:23:33.575Z,99.99
2019-02-27T05:24:32.755Z,99.99
2019-02-27T05:25:32.758Z,99.99
2019-02-27T05:26:32.744Z,99.99
2019-02-27T05:27:32.772Z,99.99
2019-02-27T05:28:34.960Z,99.99
2019-02-27T05:29:35.184Z,99.99
2019-02-27T05:30:32.722Z,99.99
2019-02-27T05:31:32.709Z,99.99
2019-02-27T05:32:32.743Z,99.99
2019-02-27T05:33:35.804Z,99.99
2019-02-27T05:34:32.693Z,99.99
2019-02-27T05:35:32.687Z,99.99
2019-02-27T05:36:32.716Z,99.99
2019-02-27T05:37:32.676Z,99.99
2019-02-27T05:38:32.703Z,99.99
2019-02-27T05:39:33.858Z,99.99
2019-02-27T05:40:32.659Z,99.99
2019-02-27T05:41:33.278Z,99.99
2019-02-27T05:42:32.656Z,99.99
2019-02-27T05:43:32.672Z,99.99
2019-02-27T05:44:32.662Z,99.99
2019-02-27T05:45:32.623Z,99.99
2019-02-27T05:46:32.615Z,99.99
2019-02-27T05:47:32.608Z,99.99
2019-02-27T05:48:32.640Z,99.99
2019-02-27T05:49:32.597Z,99.99
2019-02-27T05:50:34.340Z,99.99
2019-02-27T05:51:32.583Z,99.99
2019-02-27T05:52:32.578Z,99.99
2019-02-27T05:53:32.608Z,99.99
2019-02-27T05:54:32.933Z,99.99
2019-02-27T05:55:32.559Z,99.99
2019-02-27T05:56:32.551Z,99.99
2019-02-27T05:57:32.544Z,99.99
2019-02-27T05:58:32.574Z,99.99
2019-02-27T05:59:32.530Z,99.99
2019-02-27T06:00:32.527Z,99.99
2019-02-27T06:01:32.553Z,99.99
2019-02-27T06:02:32.520Z,99.99
2019-02-27T06:03:32.542Z,99.99
2019-02-27T06:04:34.385Z,99.99
2019-02-27T06:05:33.694Z,99.99
2019-02-27T06:06:32.486Z,99.99
2019-02-27T06:07:32.483Z,99.99
2019-02-27T06:08:35.150Z,99.99
2019-02-27T06:09:32.471Z,99.99
2019-02-27T06:10:32.467Z,99.99
2019-02-27T06:11:33.211Z,99.99
2019-02-27T06:12:32.451Z,99.99
2019-02-27T06:13:32.486Z,99.99
2019-02-27T06:14:32.439Z,99.99
2019-02-27T06:15:32.429Z,99.99
2019-02-27T06:16:37.113Z,99.99
2019-02-27T06:17:42.926Z,99.99
2019-02-27T06:18:32.445Z,99.99
2019-02-27T06:19:33.624Z,99.99
2019-02-27T06:20:32.402Z,99.99
2019-02-27T06:21:32.397Z,99.99
2019-02-27T06:22:32.387Z,99.99
2019-02-27T06:23:32.412Z,99.99
2019-02-27T06:24:32.375Z,99.99
2019-02-27T06:25:32.366Z,99.99
2019-02-27T06:26:32.952Z,99.99
2019-02-27T06:27:32.354Z,99.99
2019-02-27T06:28:32.385Z,99.99
2019-02-27T06:29:32.341Z,99.99
2019-02-27T06:30:32.339Z,99.99
2019-02-27T06:31:36.815Z,99.99
2019-02-27T06:32:32.321Z,99.99
2019-02-27T06:33:32.356Z,99.99
2019-02-27T06:34:32.311Z,99.99
2019-02-27T06:35:34.260Z,99.99
2019-02-27T06:36:32.300Z,99.99
2019-02-27T06:37:32.293Z,99.99
2019-02-27T06:38:32.321Z,99.99
2019-02-27T06:39:34.411Z,99.99
2019-02-27T06:40:32.272Z,99.99
2019-02-27T06:41:32.271Z,99.99
2019-02-27T06:42:32.327Z,99.99
2019-02-27T06:43:32.292Z,99.99
2019-02-27T06:44:32.290Z,99.99
2019-02-27T06:45:32.278Z,99.99
2019-02-27T06:46:32.239Z,99.99
2019-02-27T06:47:33.000Z,99.99
2019-02-27T06:48:32.264Z,99.99
2019-02-27T06:49:32.221Z,99.99
2019-02-27T06:50:32.212Z,99.99
2019-02-27T06:51:33.377Z,99.99
2019-02-27T06:52:32.200Z,99.99
2019-02-27T06:53:32.196Z,99.99
2019-02-27T06:54:32.229Z,99.99
2019-02-27T06:55:33.802Z,99.99
2019-02-27T06:56:32.180Z,99.99
2019-02-27T06:57:32.177Z,99.99
2019-02-27T06:58:32.170Z,99.99
2019-02-27T06:59:32.200Z,99.99
2019-02-27T07:00:35.910Z,99.99
2019-02-27T07:01:32.162Z,99.99
2019-02-27T07:02:32.154Z,99.99
2019-02-27T07:03:32.976Z,99.99
2019-02-27T07:04:32.222Z,99.99
2019-02-27T07:05:32.144Z,99.99
2019-02-27T07:06:32.137Z,99.99
2019-02-27T07:07:32.134Z,99.99
2019-02-27T07:08:32.127Z,99.49
2019-02-27T07:09:32.160Z,96.83
2019-02-27T07:10:32.131Z,95.17
2019-02-27T07:11:32.119Z,94.18
2019-02-27T07:12:32.120Z,95.27
2019-02-27T07:13:32.127Z,96.88
2019-02-27T07:14:32.148Z,96.78
2019-02-27T07:15:32.147Z,96.74
2019-02-27T07:16:32.108Z,96.26
2019-02-27T07:17:32.455Z,93.08
2019-02-27T07:18:32.107Z,90.19
2019-02-27T07:19:32.140Z,89.72
2019-02-27T07:20:32.099Z,92.14
2019-02-27T07:21:32.835Z,94.13
2019-02-27T07:22:32.105Z,94.60
2019-02-27T07:23:32.098Z,94.84
2019-02-27T07:24:33.729Z,94.03
2019-02-27T07:25:32.093Z,92.23
2019-02-27T07:26:32.094Z,91.04
2019-02-27T07:27:32.090Z,88.71
2019-02-27T07:28:32.091Z,85.90
2019-02-27T07:29:32.146Z,84.47
2019-02-27T07:30:32.125Z,83.28
2019-02-27T07:31:32.091Z,81.09
2019-02-27T07:32:32.176Z,80.08
2019-02-27T07:33:32.090Z,78.75
2019-02-27T07:34:32.132Z,79.38
2019-02-27T07:35:32.090Z,78.71
2019-02-27T07:36:32.100Z,78.99
2019-02-27T07:37:32.098Z,79.43
2019-02-27T07:38:32.096Z,80.10
2019-02-27T07:39:32.750Z,80.38
2019-02-27T07:40:32.097Z,80.53
2019-02-27T07:41:32.099Z,80.95
2019-02-27T07:42:32.627Z,80.66
2019-02-27T07:43:32.095Z,81.01
2019-02-27T07:44:32.248Z,81.24
2019-02-27T07:45:32.107Z,81.24
2019-02-27T07:46:32.105Z,80.86
2019-02-27T07:47:32.101Z,79.85
2019-02-27T07:48:32.103Z,79.19
2019-02-27T07:49:32.159Z,76.56
2019-02-27T07:50:32.685Z,76.75
2019-02-27T07:51:32.106Z,76.27
2019-02-27T07:52:32.630Z,78.04
2019-02-27T07:53:32.114Z,77.66
2019-02-27T07:54:32.144Z,78.57
2019-02-27T07:55:32.151Z,79.62
2019-02-27T07:56:32.118Z,80.19
2019-02-27T07:57:32.124Z,81.77
2019-02-27T07:58:33.798Z,81.96
2019-02-27T07:59:32.162Z,82.91
2019-02-27T08:00:32.124Z,82.62
2019-02-27T08:01:32.168Z,83.39
2019-02-27T08:02:33.727Z,83.00
2019-02-27T08:03:32.135Z,83.10
2019-02-27T08:04:32.180Z,83.48
2019-02-27T08:05:32.145Z,83.48
2019-02-27T08:06:32.146Z,84.66
2019-02-27T08:07:32.189Z,84.89
2019-02-27T08:08:32.152Z,83.32
2019-02-27T08:09:32.194Z,80.46
2019-02-27T08:10:32.169Z,80.50
2019-02-27T08:11:32.166Z,80.54
2019-02-27T08:12:32.167Z,80.16
2019-02-27T08:13:32.174Z,77.20
2019-02-27T08:14:37.051Z,77.17
2019-02-27T08:15:32.218Z,77.32
2019-02-27T08:16:32.186Z,79.32
2019-02-27T08:17:32.193Z,80.61
2019-02-27T08:18:36.471Z,83.70
2019-02-27T08:19:32.203Z,83.78
2019-02-27T08:20:32.244Z,80.39
2019-02-27T08:21:32.241Z,77.09
2019-02-27T08:22:32.224Z,75.09
2019-02-27T08:23:32.903Z,73.96
2019-02-27T08:24:33.683Z,75.07
2019-02-27T08:25:32.243Z,78.92
2019-02-27T08:26:32.280Z,78.49
2019-02-27T08:27:32.255Z,77.28
2019-02-27T08:28:32.263Z,74.88
2019-02-27T08:29:32.270Z,72.30
2019-02-27T08:30:32.323Z,71.67
2019-02-27T08:31:32.278Z,70.14
2019-02-27T08:32:34.489Z,68.13
2019-02-27T08:33:32.303Z,66.22
2019-02-27T08:34:32.307Z,67.11
2019-02-27T08:35:32.344Z,68.12
2019-02-27T08:36:32.319Z,69.08
2019-02-27T08:37:32.329Z,69.62
2019-02-27T08:38:32.369Z,70.89
2019-02-27T08:39:32.337Z,70.22
2019-02-27T08:40:32.380Z,70.03
2019-02-27T08:41:32.355Z,70.54
2019-02-27T08:42:36.817Z,69.87
2019-02-27T08:43:32.372Z,70.51
2019-02-27T08:44:32.417Z,70.38
2019-02-27T08:45:32.431Z,71.52
2019-02-27T08:46:36.724Z,71.81
2019-02-27T08:47:33.665Z,72.00
2019-02-27T08:48:32.417Z,72.55
2019-02-27T08:49:32.428Z,71.86
2019-02-27T08:50:32.485Z,68.35
2019-02-27T08:51:32.480Z,67.43
2019-02-27T08:52:32.454Z,66.13
2019-02-27T08:53:34.450Z,64.63
2019-02-27T08:54:33.164Z,63.76
2019-02-27T08:55:32.522Z,63.67
2019-02-27T08:56:32.494Z,62.04
2019-02-27T08:57:32.507Z,63.32
2019-02-27T08:58:33.049Z,62.36
2019-02-27T08:59:32.525Z,61.11
2019-02-27T09:00:32.581Z,61.11
2019-02-27T09:01:32.549Z,60.73
2019-02-27T09:02:32.556Z,59.87
2019-02-27T09:03:36.169Z,60.38
2019-02-27T09:04:32.577Z,59.71
2019-02-27T09:05:32.624Z,58.59
2019-02-27T09:06:32.642Z,57.43
2019-02-27T09:07:33.963Z,56.48
2019-02-27T09:08:32.627Z,55.30
2019-02-27T09:09:32.636Z,55.40
2019-02-27T09:10:32.662Z,55.97
2019-02-27T09:11:32.697Z,56.52
2019-02-27T09:12:32.670Z,57.28
2019-02-27T09:13:32.684Z,57.28
2019-02-27T09:14:33.313Z,57.83
2019-02-27T09:15:32.707Z,58.09
2019-02-27T09:16:32.757Z,58.76
2019-02-27T09:17:32.730Z,59.62
2019-02-27T09:18:33.389Z,58.66
2019-02-27T09:19:32.753Z,57.83
2019-02-27T09:20:32.765Z,57.45
2019-02-27T09:21:32.816Z,56.23
2019-02-27T09:22:33.872Z,56.04
2019-02-27T09:23:32.799Z,55.30
2019-02-27T09:24:32.848Z,53.77
2019-02-27T09:25:32.824Z,53.83
2019-02-27T09:26:35.990Z,53.28
2019-02-27T09:27:33.015Z,53.96
2019-02-27T09:28:32.861Z,53.86
2019-02-27T09:29:32.872Z,53.79
2019-02-27T09:30:32.885Z,53.99
2019-02-27T09:31:34.701Z,53.34
2019-02-27T09:32:32.944Z,52.76
2019-02-27T09:33:38.699Z,53.03
2019-02-27T09:34:32.968Z,53.70
2019-02-27T09:35:38.299Z,53.72
2019-02-27T09:36:32.959Z,53.34
2019-02-27T09:37:33.009Z,54.04
2019-02-27T09:38:32.987Z,53.17
2019-02-27T09:39:35.027Z,52.40
2019-02-27T09:40:33.010Z,53.36
2019-02-27T09:41:33.020Z,52.91
2019-02-27T09:42:33.076Z,53.01
2019-02-27T09:43:33.063Z,53.27
2019-02-27T09:44:36.400Z,53.85
2019-02-27T09:45:34.691Z,54.16
2019-02-27T09:46:33.089Z,53.20
2019-02-27T09:47:33.138Z,53.87
2019-02-27T09:48:33.484Z,53.90
2019-02-27T09:49:33.127Z,53.03
2019-02-27T09:50:33.145Z,53.54
2019-02-27T09:51:33.157Z,53.09
2019-02-27T09:52:33.208Z,52.12
2019-02-27T09:53:33.913Z,52.12
2019-02-27T09:54:33.977Z,52.29
2019-02-27T09:55:33.211Z,51.88
2019-02-27T09:56:33.228Z,52.74
2019-02-27T09:57:35.258Z,55.36
2019-02-27T09:58:33.297Z,58.17
2019-02-27T09:59:33.275Z,58.65
2019-02-27T10:00:33.436Z,58.04
2019-02-27T10:01:35.211Z,57.28
2019-02-27T10:02:33.321Z,56.53
2019-02-27T10:03:33.383Z,55.69
2019-02-27T10:04:33.354Z,55.10
2019-02-27T10:05:36.391Z,56.44
2019-02-27T10:06:33.384Z,58.10
2019-02-27T10:07:33.400Z,57.39
2019-02-27T10:08:33.453Z,54.85
2019-02-27T10:09:34.868Z,53.21
2019-02-27T10:10:33.448Z,53.05
2019-02-27T10:11:33.464Z,51.60
2019-02-27T10:12:33.481Z,52.11
2019-02-27T10:13:35.440Z,51.65
2019-02-27T10:14:33.632Z,51.07
2019-02-27T10:15:34.448Z,50.47
2019-02-27T10:16:34.867Z,50.54
2019-02-27T10:17:33.571Z,50.23
2019-02-27T10:18:33.628Z,50.30
2019-02-27T10:19:33.605Z,49.96
2019-02-27T10:20:36.868Z,52.14
2019-02-27T10:21:33.658Z,55.27
2019-02-27T10:22:33.656Z,53.21
2019-02-27T10:23:33.712Z,51.02
2019-02-27T10:24:33.699Z,49.99
2019-02-27T10:25:33.711Z,49.24
2019-02-27T10:26:33.732Z,48.57
2019-02-27T10:27:33.757Z,50.62
2019-02-27T10:28:38.777Z,48.71
2019-02-27T10:29:33.845Z,47.27
2019-02-27T10:30:33.806Z,46.64
2019-02-27T10:31:33.879Z,46.83
2019-02-27T10:32:36.418Z,48.38
2019-02-27T10:33:33.908Z,48.01
2019-02-27T10:34:33.990Z,47.07
2019-02-27T10:35:34.923Z,44.95
2019-02-27T10:36:38.248Z,44.76
2019-02-27T10:37:33.961Z,43.60
2019-02-27T10:38:40.056Z,44.95
2019-02-27T10:39:36.918Z,46.30
2019-02-27T10:40:34.010Z,45.36
2019-02-27T10:41:34.016Z,45.09
2019-02-27T10:42:34.081Z,44.87
2019-02-27T10:43:34.092Z,44.85
2019-02-27T10:44:34.534Z,46.11
2019-02-27T10:45:34.118Z,46.88
2019-02-27T10:46:34.119Z,45.53
2019-02-27T10:47:36.250Z,43.62
2019-02-27T10:48:34.197Z,42.48
2019-02-27T10:49:34.209Z,42.79
2019-02-27T10:50:35.395Z,43.28
2019-02-27T10:51:34.246Z,41.83
2019-02-27T10:52:34.232Z,40.77
2019-02-27T10:53:34.298Z,42.10
2019-02-27T10:54:39.918Z,43.26
2019-02-27T10:55:34.292Z,43.64
2019-02-27T10:56:34.317Z,44.39
2019-02-27T10:57:38.246Z,43.16
2019-02-27T10:58:34.394Z,43.16
2019-02-27T10:59:34.415Z,44.12
2019-02-27T11:00:34.396Z,44.70
2019-02-27T11:01:36.437Z,43.28
2019-02-27T11:02:34.438Z,42.70
2019-02-27T11:03:34.495Z,41.75
2019-02-27T11:04:36.339Z,41.56
2019-02-27T11:05:34.494Z,41.56
2019-02-27T11:06:37.647Z,43.20
2019-02-27T11:07:34.534Z,43.88
2019-02-27T11:08:34.591Z,43.98
2019-02-27T11:09:34.608Z,43.32
2019-02-27T11:10:34.619Z,41.31
2019-02-27T11:11:34.613Z,41.60
2019-02-27T11:12:34.677Z,40.34
2019-02-27T11:13:35.621Z,39.06
2019-02-27T11:14:35.903Z,38.18
2019-02-27T11:15:35.874Z,38.87
2019-02-27T11:16:34.820Z,39.43
2019-02-27T11:17:34.743Z,40.23
2019-02-27T11:18:34.761Z,39.82
2019-02-27T11:19:35.028Z,37.50
2019-02-27T11:20:34.802Z,37.70
2019-02-27T11:21:34.858Z,37.98
2019-02-27T11:22:34.847Z,38.46
2019-02-27T11:23:34.860Z,38.37
2019-02-27T11:24:34.914Z,38.10
2019-02-27T11:25:34.904Z,38.68
2019-02-27T11:26:34.923Z,37.32
2019-02-27T11:27:36.375Z,36.94
2019-02-27T11:28:34.962Z,37.13
2019-02-27T11:29:35.027Z,36.94
2019-02-27T11:30:36.828Z,36.26
2019-02-27T11:31:35.427Z,37.54
2019-02-27T11:32:35.047Z,38.41
2019-02-27T11:33:35.093Z,37.36
2019-02-27T11:34:35.129Z,35.33
2019-02-27T11:35:35.113Z,33.95
2019-02-27T11:36:35.164Z,34.73
2019-02-27T11:37:35.147Z,36.76
2019-02-27T11:38:35.171Z,36.86
2019-02-27T11:39:35.227Z,36.38
2019-02-27T11:40:35.212Z,36.98
2019-02-27T11:41:35.231Z,35.91
2019-02-27T11:42:35.251Z,33.97
2019-02-27T11:43:37.900Z,34.55
2019-02-27T11:44:35.408Z,36.80
2019-02-27T11:45:35.315Z,34.45
2019-02-27T11:46:38.212Z,35.33
2019-02-27T11:47:35.355Z,36.70
2019-02-27T11:48:35.375Z,36.41
2019-02-27T11:49:36.278Z,35.05
2019-02-27T11:50:35.426Z,34.19
2019-02-27T11:51:35.442Z,33.70
2019-02-27T11:52:35.474Z,33.20
2019-02-27T11:53:36.002Z,33.76
2019-02-27T11:54:35.540Z,33.95
2019-02-27T11:55:35.523Z,34.42
2019-02-27T11:56:35.547Z,34.44
2019-02-27T11:57:35.571Z,35.10
2019-02-27T11:58:38.528Z,36.38
2019-02-27T11:59:35.650Z,35.60
2019-02-27T12:00:35.670Z,35.10
2019-02-27T12:01:35.653Z,35.99
2019-02-27T12:02:37.779Z,35.99
2019-02-27T12:03:35.691Z,36.58
2019-02-27T12:04:35.748Z,35.72
2019-02-27T12:05:35.738Z,34.77
2019-02-27T12:06:35.758Z,34.67
2019-02-27T12:07:35.776Z,35.44
2019-02-27T12:08:35.797Z,34.77
2019-02-27T12:09:35.923Z,34.75
2019-02-27T12:10:35.882Z,34.84
2019-02-27T12:11:35.859Z,35.54
2019-02-27T12:12:35.884Z,34.38
2019-02-27T12:13:35.907Z,34.38
2019-02-27T12:14:35.958Z,33.99
2019-02-27T12:15:35.948Z,34.86
2019-02-27T12:16:36.004Z,33.10
2019-02-27T12:17:35.993Z,34.36
2019-02-27T12:18:36.009Z,36.10
2019-02-27T12:19:36.068Z,36.10
2019-02-27T12:20:36.054Z,37.44
2019-02-27T12:21:36.114Z,38.13
2019-02-27T12:22:36.129Z,37.44
2019-02-27T12:23:36.113Z,36.96
2019-02-27T12:24:36.136Z,37.13
2019-02-27T12:25:36.190Z,37.32
2019-02-27T12:26:37.505Z,37.79
2019-02-27T12:27:48.259Z,38.76
2019-02-27T12:28:36.255Z,37.98
2019-02-27T12:29:36.240Z,36.46
2019-02-27T12:30:37.462Z,37.13
2019-02-27T12:31:36.279Z,36.76
2019-02-27T12:32:36.293Z,37.55
2019-02-27T12:33:36.312Z,35.70
2019-02-27T12:34:37.044Z,35.68
2019-02-27T12:35:36.390Z,37.42
2019-02-27T12:36:36.374Z,37.13
2019-02-27T12:37:36.395Z,37.42
2019-02-27T12:38:36.421Z,37.05
2019-02-27T12:39:36.432Z,36.28
2019-02-27T12:40:36.490Z,35.89
2019-02-27T12:41:36.472Z,36.66
2019-02-27T12:42:37.553Z,37.26
2019-02-27T12:43:36.509Z,36.98
2019-02-27T12:44:36.526Z,35.80
2019-02-27T12:45:36.591Z,35.66
2019-02-27T12:46:37.121Z,35.74
2019-02-27T12:47:37.649Z,36.52
2019-02-27T12:48:36.603Z,37.02
2019-02-27T12:49:36.624Z,36.72
2019-02-27T12:50:36.678Z,36.61
2019-02-27T12:51:38.292Z,36.71
2019-02-27T12:52:36.681Z,37.98